createdAt,value
2023-07-15T00:02:18.933Z,27.36
2023-07-15T00:05:25.331Z,27.24
2023-07-15T00:08:29.118Z,27.03
2023-07-15T00:11:35.836Z,27.10
2023-07-15T00:14:40.658Z,27.14
2023-07-15T00:17:44.316Z,27.05
2023-07-15T00:20:48.135Z,27.14
2023-07-15T00:23:54.514Z,27.06
2023-07-15T00:27:00.090Z,27.10
2023-07-15T00:30:05.364Z,26.99
2023-07-15T00:33:14.725Z,27.00
2023-07-15T00:36:18.670Z,27.05
2023-07-15T00:39:21.910Z,27.09
2023-07-15T00:43:03.654Z,27.21
2023-07-15T00:46:50.255Z,27.27
2023-07-15T00:49:53.669Z,27.24
2023-07-15T00:52:56.864Z,27.27
2023-07-15T00:56:00.123Z,27.32
2023-07-15T00:59:04.342Z,27.34
2023-07-15T01:02:10.417Z,27.41
2023-07-15T01:05:13.966Z,27.40
2023-07-15T01:08:17.115Z,27.34
2023-07-15T01:11:21.179Z,27.33
2023-07-15T01:14:24.512Z,27.31
2023-07-15T01:17:29.630Z,27.29
2023-07-15T01:20:33.632Z,27.30
2023-07-15T01:23:38.445Z,27.22
2023-07-15T01:26:41.559Z,27.23
2023-07-15T01:29:45.513Z,27.25
2023-07-15T01:32:48.902Z,27.29
2023-07-15T01:35:52.255Z,27.33
2023-07-15T01:38:57.198Z,27.31
2023-07-15T01:42:00.217Z,27.24
2023-07-15T01:45:04.829Z,27.07
2023-07-15T01:48:08.900Z,27.07
2023-07-15T01:51:12.210Z,27.11
2023-07-15T01:54:16.702Z,27.07
2023-07-15T01:57:19.732Z,27.06
2023-07-15T02:00:22.826Z,27.14
2023-07-15T02:03:26.032Z,27.12
2023-07-15T02:06:29.306Z,27.14
2023-07-15T02:09:35.516Z,27.12
2023-07-15T02:12:38.975Z,27.14
2023-07-15T02:15:42.079Z,27.05
2023-07-15T02:18:45.306Z,27.11
2023-07-15T02:21:48.397Z,27.18
2023-07-15T02:24:53.022Z,27.23
2023-07-15T02:27:56.200Z,27.21
2023-07-15T02:30:59.431Z,27.23
2023-07-15T02:34:02.602Z,27.19
2023-07-15T02:37:05.884Z,27.15
2023-07-15T02:40:11.767Z,27.09
2023-07-15T02:43:14.987Z,27.07
2023-07-15T02:46:18.291Z,27.14
2023-07-15T02:49:21.639Z,27.19
2023-07-15T02:52:25.645Z,27.18
2023-07-15T02:55:31.311Z,27.19
2023-07-15T02:58:35.265Z,27.15
2023-07-15T03:01:39.029Z,27.14
2023-07-15T03:04:42.231Z,26.96
2023-07-15T03:07:46.357Z,27.00
2023-07-15T03:10:51.525Z,27.04
2023-07-15T03:13:55.637Z,27.05
2023-07-15T03:16:58.755Z,27.03
2023-07-15T03:20:01.905Z,27.08
2023-07-15T03:23:05.439Z,27.10
2023-07-15T03:26:10.075Z,27.11
2023-07-15T03:29:13.284Z,27.06
2023-07-15T03:32:16.934Z,26.99
2023-07-15T03:35:19.956Z,27.05
2023-07-15T03:38:23.105Z,27.07
2023-07-15T03:41:27.870Z,27.07
2023-07-15T03:44:30.870Z,27.00
2023-07-15T03:47:35.171Z,26.83
2023-07-15T03:50:38.304Z,26.57
2023-07-15T03:53:41.690Z,26.51
2023-07-15T03:56:46.189Z,26.37
2023-07-15T03:59:49.261Z,26.37
2023-07-15T04:02:55.437Z,26.45
2023-07-15T04:05:58.589Z,26.53
2023-07-15T04:09:01.698Z,26.57
2023-07-15T04:12:09.475Z,26.69
2023-07-15T04:15:12.884Z,26.86
2023-07-15T04:18:17.995Z,26.90
2023-07-15T04:21:21.013Z,26.94
2023-07-15T04:24:24.032Z,26.99
2023-07-15T04:27:28.485Z,27.04
2023-07-15T04:30:31.632Z,27.09
2023-07-15T04:33:34.990Z,27.12
2023-07-15T04:36:38.175Z,27.15
2023-07-15T04:39:41.389Z,27.17
2023-07-15T04:42:46.829Z,27.17
2023-07-15T04:45:50.139Z,27.12
2023-07-15T04:48:53.667Z,27.05
2023-07-15T04:51:56.803Z,27.03
2023-07-15T04:55:00.205Z,27.08
2023-07-15T04:58:05.055Z,27.12
2023-07-15T05:01:08.656Z,27.08
2023-07-15T05:04:11.813Z,27.08
2023-07-15T05:07:15.075Z,27.04
2023-07-15T05:10:18.126Z,27.10
2023-07-15T05:13:23.099Z,27.12
2023-07-15T05:16:26.385Z,27.00
2023-07-15T05:19:29.591Z,27.14
2023-07-15T05:22:32.713Z,27.22
2023-07-15T05:25:36.927Z,27.26
2023-07-15T05:28:41.597Z,27.27
2023-07-15T05:31:47.072Z,27.26
2023-07-15T05:34:50.742Z,27.31
2023-07-15T05:37:53.838Z,27.32
2023-07-15T05:40:58.226Z,27.35
2023-07-15T05:44:03.135Z,27.41
2023-07-15T05:47:06.675Z,27.54
2023-07-15T05:50:10.998Z,27.63
2023-07-15T05:53:14.108Z,27.66
2023-07-15T05:56:17.680Z,27.65
2023-07-15T05:59:23.281Z,27.65
2023-07-15T06:02:27.888Z,27.72
2023-07-15T06:05:31.986Z,27.78
2023-07-15T06:08:35.141Z,27.76
2023-07-15T06:11:38.152Z,27.84
2023-07-15T06:14:42.674Z,27.90
2023-07-15T06:17:46.173Z,27.91
2023-07-15T06:20:50.122Z,27.93
2023-07-15T06:23:53.183Z,27.90
2023-07-15T06:26:56.409Z,27.96
2023-07-15T06:30:01.722Z,27.93
2023-07-15T06:33:04.944Z,27.99
2023-07-15T06:36:09.074Z,28.11
2023-07-15T06:39:12.189Z,28.21
2023-07-15T06:42:15.479Z,28.10
2023-07-15T06:45:21.717Z,28.00
2023-07-15T06:48:25.198Z,28.11
2023-07-15T06:51:28.271Z,28.14
2023-07-15T06:54:33.871Z,28.17
2023-07-15T06:57:36.939Z,28.02
2023-07-15T07:00:42.486Z,28.17
2023-07-15T07:03:46.462Z,28.16
2023-07-15T07:06:49.584Z,28.12
2023-07-15T07:09:52.613Z,28.14
2023-07-15T07:12:55.660Z,28.34
2023-07-15T07:16:00.672Z,28.25
2023-07-15T07:19:03.995Z,28.31
2023-07-15T07:22:07.296Z,28.39
2023-07-15T07:25:11.369Z,28.47
2023-07-15T07:28:14.481Z,28.51
2023-07-15T07:31:20.000Z,28.53
2023-07-15T07:34:23.411Z,28.63
2023-07-15T07:37:26.935Z,28.71
2023-07-15T07:40:30.242Z,28.76
2023-07-15T07:43:33.633Z,28.12
2023-07-15T07:46:38.433Z,27.08
2023-07-15T07:49:41.619Z,26.58
2023-07-15T07:52:44.756Z,26.11
2023-07-15T07:55:47.771Z,26.10
2023-07-15T07:58:55.981Z,26.08
2023-07-15T08:02:00.452Z,25.72
2023-07-15T08:05:03.798Z,25.50
2023-07-15T08:08:06.956Z,25.57
2023-07-15T08:11:10.009Z,25.45
2023-07-15T08:14:13.108Z,25.48
2023-07-15T08:17:17.985Z,25.14
2023-07-15T08:20:21.065Z,24.98
2023-07-15T08:23:24.108Z,24.90
2023-07-15T08:26:27.471Z,24.63
2023-07-15T08:29:30.535Z,24.79
2023-07-15T08:32:34.978Z,24.91
2023-07-15T08:35:38.223Z,24.75
2023-07-15T08:38:41.443Z,24.61
2023-07-15T08:41:45.019Z,24.61
2023-07-15T08:44:48.659Z,24.45
2023-07-15T08:47:53.508Z,24.52
2023-07-15T08:50:59.380Z,24.41
2023-07-15T08:54:03.681Z,24.46
2023-07-15T08:57:08.941Z,24.27
2023-07-15T09:00:13.405Z,24.41
2023-07-15T09:03:18.065Z,24.84
2023-07-15T09:06:21.200Z,25.00
2023-07-15T09:09:33.318Z,25.16
2023-07-15T09:12:36.369Z,25.20
2023-07-15T09:15:39.453Z,25.08
2023-07-15T09:18:45.479Z,25.06
2023-07-15T09:21:54.158Z,24.88
2023-07-15T09:25:04.821Z,25.09
2023-07-15T09:28:10.730Z,25.13
2023-07-15T09:31:23.953Z,25.14
2023-07-15T09:34:28.841Z,25.17
2023-07-15T09:37:33.241Z,24.75
2023-07-15T09:40:43.229Z,25.00
2023-07-15T09:43:48.140Z,24.70
2023-07-15T09:46:51.527Z,24.68
2023-07-15T09:49:56.165Z,24.79
2023-07-15T09:53:01.376Z,24.97
2023-07-15T09:56:07.791Z,24.77
2023-07-15T09:59:17.691Z,24.56
2023-07-15T10:02:34.624Z,24.26
2023-07-15T10:05:39.807Z,24.17
2023-07-15T10:08:43.781Z,24.07
2023-07-15T10:11:47.264Z,23.95
2023-07-15T10:14:51.040Z,23.89
2023-07-15T10:17:54.294Z,23.87
2023-07-15T10:21:00.180Z,23.80
2023-07-15T10:24:11.517Z,23.72
2023-07-15T10:27:16.191Z,23.72
2023-07-15T10:30:24.934Z,23.71
2023-07-15T10:33:28.248Z,23.49
2023-07-15T10:36:40.376Z,23.60
2023-07-15T10:39:44.214Z,23.50
2023-07-15T10:42:47.345Z,23.47
2023-07-15T10:45:54.020Z,23.35
2023-07-15T10:48:57.166Z,23.34
2023-07-15T10:52:02.099Z,23.22
2023-07-15T10:55:05.090Z,23.77
2023-07-15T10:58:09.542Z,24.17
2023-07-15T11:01:14.153Z,24.35
2023-07-15T11:04:21.274Z,24.46
2023-07-15T11:07:26.727Z,24.33
2023-07-15T11:10:35.169Z,24.57
2023-07-15T11:13:39.223Z,24.41
2023-07-15T11:16:42.377Z,24.45
2023-07-15T11:19:45.482Z,24.53
2023-07-15T11:22:49.989Z,24.43
2023-07-15T11:25:53.109Z,24.31
2023-07-15T11:28:58.932Z,24.26
2023-07-15T11:32:03.550Z,24.37
2023-07-15T11:35:14.192Z,24.32
2023-07-15T11:38:30.757Z,24.45
2023-07-15T11:41:35.426Z,24.47
2023-07-15T11:44:38.764Z,24.29
2023-07-15T11:47:44.117Z,24.44
2023-07-15T11:50:47.453Z,24.44
2023-07-15T11:53:54.688Z,24.46
2023-07-15T11:56:59.911Z,24.43
2023-07-15T12:00:03.850Z,24.43
2023-07-15T12:03:10.072Z,24.49
2023-07-15T12:06:17.818Z,24.44
2023-07-15T12:09:23.935Z,24.44
2023-07-15T12:12:26.993Z,24.38
2023-07-15T12:15:30.132Z,24.08
2023-07-15T12:18:33.176Z,23.86
2023-07-15T12:21:36.374Z,23.78
2023-07-15T12:24:42.943Z,23.72
2023-07-15T12:27:48.384Z,23.92
2023-07-15T12:30:51.525Z,24.07
2023-07-15T12:33:54.668Z,23.68
2023-07-15T12:36:59.479Z,23.68
2023-07-15T12:40:04.530Z,24.01
2023-07-15T12:43:07.623Z,23.84
2023-07-15T12:46:11.163Z,23.66
2023-07-15T12:49:14.285Z,23.90
2023-07-15T12:52:17.466Z,23.88
2023-07-15T12:55:21.908Z,23.67
2023-07-15T12:58:25.694Z,23.63
2023-07-15T13:01:28.971Z,23.58
2023-07-15T13:04:32.352Z,23.96
2023-07-15T13:07:35.551Z,23.74
2023-07-15T13:10:40.097Z,23.69
2023-07-15T13:13:43.165Z,23.69
2023-07-15T13:16:46.335Z,23.99
2023-07-15T13:19:49.411Z,23.75
2023-07-15T13:22:52.557Z,23.66
2023-07-15T13:25:56.996Z,23.89
2023-07-15T13:29:00.128Z,23.80
2023-07-15T13:32:03.464Z,23.62
2023-07-15T13:35:07.186Z,24.01
2023-07-15T13:38:10.211Z,23.74
2023-07-15T13:41:14.778Z,23.66
2023-07-15T13:44:18.050Z,23.84
2023-07-15T13:47:21.252Z,23.84
2023-07-15T13:50:24.467Z,24.12
2023-07-15T13:53:27.596Z,24.23
2023-07-15T13:56:32.251Z,24.22
2023-07-15T13:59:35.353Z,23.90
2023-07-15T14:02:38.487Z,23.69
2023-07-15T14:05:41.688Z,23.47
2023-07-15T14:08:44.782Z,23.44
2023-07-15T14:11:49.367Z,23.54
2023-07-15T14:14:52.526Z,23.68
2023-07-15T14:17:57.440Z,23.69
2023-07-15T14:21:00.605Z,24.12
2023-07-15T14:24:05.295Z,23.78
2023-07-15T14:27:11.792Z,23.56
2023-07-15T14:30:15.073Z,23.56
2023-07-15T14:33:18.201Z,23.89
2023-07-15T14:36:21.286Z,24.50
2023-07-15T14:39:24.502Z,24.73
2023-07-15T14:42:29.214Z,24.75
2023-07-15T14:45:32.645Z,24.48
2023-07-15T14:48:36.347Z,24.58
2023-07-15T14:51:39.514Z,24.47
2023-07-15T14:54:42.624Z,24.56
2023-07-15T14:57:47.400Z,24.49
2023-07-15T15:00:50.589Z,24.44
2023-07-15T15:03:53.776Z,24.35
2023-07-15T15:06:56.934Z,24.48
2023-07-15T15:09:59.990Z,24.43
2023-07-15T15:13:04.537Z,24.42
2023-07-15T15:16:11.510Z,24.37
2023-07-15T15:19:14.630Z,24.36
2023-07-15T15:22:17.855Z,24.42
2023-07-15T15:25:20.925Z,24.42
2023-07-15T15:28:25.484Z,24.57
2023-07-15T15:31:28.731Z,24.63
2023-07-15T15:34:31.951Z,24.77
2023-07-15T15:37:35.541Z,24.58
2023-07-15T15:40:38.744Z,24.43
2023-07-15T15:43:43.345Z,24.44
2023-07-15T15:46:46.457Z,24.59
2023-07-15T15:49:49.595Z,24.55
2023-07-15T15:52:52.702Z,24.47
2023-07-15T15:55:55.889Z,24.55
2023-07-15T15:59:00.455Z,24.50
2023-07-15T16:02:03.805Z,24.53
2023-07-15T16:05:07.933Z,24.45
2023-07-15T16:08:10.987Z,24.28
2023-07-15T16:11:14.556Z,24.30
2023-07-15T16:14:19.413Z,24.14
2023-07-15T16:17:22.630Z,24.19
2023-07-15T16:20:25.899Z,24.05
2023-07-15T16:23:28.917Z,24.11
2023-07-15T16:26:32.011Z,23.98
2023-07-15T16:29:36.607Z,24.05
2023-07-15T16:32:39.639Z,23.90
2023-07-15T16:35:42.814Z,23.96
2023-07-15T16:38:45.850Z,23.99
2023-07-15T16:41:49.160Z,23.92
2023-07-15T16:44:53.596Z,23.87
2023-07-15T16:47:56.905Z,23.94
2023-07-15T16:51:00.018Z,24.29
2023-07-15T16:54:03.121Z,24.38
2023-07-15T16:57:06.759Z,24.52
2023-07-15T17:00:12.743Z,24.42
2023-07-15T17:03:15.916Z,24.26
2023-07-15T17:06:19.125Z,24.47
2023-07-15T17:09:32.404Z,24.44
2023-07-15T17:12:35.793Z,24.48
2023-07-15T17:15:40.289Z,24.55
2023-07-15T17:18:43.350Z,24.57
2023-07-15T17:21:46.571Z,24.58
2023-07-15T17:24:52.716Z,24.40
2023-07-15T17:27:55.959Z,24.68
2023-07-15T17:31:00.414Z,25.19
2023-07-15T17:34:03.682Z,25.54
2023-07-15T17:37:07.577Z,25.78
2023-07-15T17:40:11.362Z,25.93
2023-07-15T17:43:14.403Z,26.05
2023-07-15T17:46:18.977Z,26.19
2023-07-15T17:49:22.102Z,26.25
2023-07-15T17:52:25.482Z,26.33
2023-07-15T17:55:28.536Z,26.39
2023-07-15T17:58:31.699Z,26.44
2023-07-15T18:01:36.194Z,26.49
2023-07-15T18:04:40.128Z,26.50
2023-07-15T18:07:43.199Z,26.55
2023-07-15T18:10:46.305Z,26.61
2023-07-15T18:13:49.397Z,26.64
2023-07-15T18:16:55.168Z,26.67
2023-07-15T18:19:58.198Z,26.70
2023-07-15T18:23:01.405Z,26.71
2023-07-15T18:26:04.541Z,26.73
2023-07-15T18:29:07.592Z,26.73
2023-07-15T18:32:12.820Z,26.84
2023-07-15T18:35:16.021Z,26.90
2023-07-15T18:38:19.220Z,26.86
2023-07-15T18:41:22.283Z,26.93
2023-07-15T18:44:25.474Z,27.06
2023-07-15T18:47:29.979Z,26.95
2023-07-15T18:50:33.098Z,26.93
2023-07-15T18:53:36.167Z,26.96
2023-07-15T18:56:39.257Z,26.98
2023-07-15T18:59:42.488Z,26.96
2023-07-15T19:02:47.110Z,26.99
2023-07-15T19:05:51.587Z,27.00
2023-07-15T19:08:54.698Z,26.96
2023-07-15T19:11:57.808Z,26.95
2023-07-15T19:15:00.907Z,26.93
2023-07-15T19:18:05.495Z,26.92
2023-07-15T19:21:08.684Z,26.94
2023-07-15T19:27:37.302Z,26.94
2023-07-15T19:30:40.593Z,26.99
2023-07-15T19:33:46.932Z,26.97
2023-07-15T19:36:50.209Z,26.95
2023-07-15T19:39:53.239Z,26.97
2023-07-15T19:42:56.346Z,26.98
2023-07-15T19:45:59.492Z,26.98
2023-07-15T19:49:04.312Z,27.00
2023-07-15T19:52:07.903Z,27.02
2023-07-15T19:55:10.951Z,27.01
2023-07-15T19:58:14.086Z,27.03
2023-07-15T20:01:17.136Z,27.05
2023-07-15T20:04:21.741Z,27.05
2023-07-15T20:07:24.912Z,27.15
2023-07-15T20:10:28.152Z,27.17
2023-07-15T20:13:31.265Z,27.16
2023-07-15T20:16:36.065Z,27.11
2023-07-15T20:19:40.967Z,27.14
2023-07-15T20:22:44.242Z,27.14
2023-07-15T20:25:47.623Z,27.15
2023-07-15T20:28:50.818Z,27.14
2023-07-15T20:31:53.967Z,27.14
2023-07-15T20:34:58.788Z,27.13
2023-07-15T20:38:01.866Z,27.10
2023-07-15T20:41:06.036Z,27.09
2023-07-15T20:44:09.365Z,27.06
2023-07-15T20:47:12.449Z,27.08
2023-07-15T20:50:18.183Z,27.05
2023-07-15T20:53:21.412Z,27.05
2023-07-15T20:56:24.571Z,27.04
2023-07-15T20:59:27.649Z,27.02
2023-07-15T21:02:30.771Z,27.02
2023-07-15T21:05:35.441Z,27.04
2023-07-15T21:08:38.639Z,27.03
2023-07-15T21:11:42.080Z,26.97
2023-07-15T21:14:45.157Z,27.01
2023-07-15T21:17:48.269Z,27.01
2023-07-15T21:20:54.255Z,27.01
2023-07-15T21:23:57.865Z,26.96
2023-07-15T21:27:00.945Z,27.00
2023-07-15T21:30:05.175Z,26.90
2023-07-15T21:33:08.194Z,26.94
2023-07-15T21:36:12.846Z,26.98
2023-07-15T21:39:16.545Z,26.97
2023-07-15T21:42:19.647Z,26.94
2023-07-15T21:45:22.727Z,26.97
2023-07-15T21:48:25.807Z,26.96
2023-07-15T21:51:30.273Z,26.95
2023-07-15T21:54:33.275Z,26.78
2023-07-15T21:57:36.481Z,26.91
2023-07-15T22:00:40.012Z,26.89
2023-07-15T22:03:43.206Z,26.97
2023-07-15T22:06:47.769Z,27.00
2023-07-15T22:09:50.789Z,26.96
2023-07-15T22:12:53.846Z,26.90
2023-07-15T22:15:57.171Z,26.99
2023-07-15T22:19:00.242Z,26.90
2023-07-15T22:22:05.007Z,26.92
2023-07-15T22:25:09.151Z,26.96
2023-07-15T22:28:12.249Z,26.98
2023-07-15T22:31:15.364Z,26.97
2023-07-15T22:34:18.517Z,27.04
2023-07-15T22:37:23.058Z,27.03
2023-07-15T22:40:26.109Z,26.99
2023-07-15T22:43:29.231Z,27.05
2023-07-15T22:46:32.345Z,26.92
2023-07-15T22:49:35.429Z,26.92
2023-07-15T22:52:40.824Z,26.89
2023-07-15T22:55:43.922Z,26.86
2023-07-15T22:58:47.076Z,26.87
2023-07-15T23:01:50.450Z,26.78
2023-07-15T23:04:53.653Z,26.79
2023-07-15T23:07:58.092Z,26.80
2023-07-15T23:11:01.280Z,26.74
2023-07-15T23:14:04.460Z,26.76
2023-07-15T23:17:08.055Z,26.61
2023-07-15T23:20:11.551Z,26.59
2023-07-15T23:23:17.932Z,26.59
2023-07-15T23:26:21.516Z,26.62
2023-07-15T23:29:24.612Z,26.67
2023-07-15T23:32:29.816Z,26.60
2023-07-15T23:35:33.492Z,26.57
2023-07-15T23:38:38.810Z,26.60
2023-07-15T23:41:41.974Z,26.63
2023-07-15T23:44:45.082Z,26.58
2023-07-15T23:47:48.236Z,26.62
2023-07-15T23:50:51.421Z,26.58
2023-07-15T23:53:55.909Z,26.60
2023-07-15T23:56:59.007Z,26.57
